Crown College, Minnesota
Current Conditions -  °F | °C
As of 5:53 PM on Sunday 21 Dec 2014 (Local Time) from KFCM Reporting Station
Haze Haze  
Wind Chill: 29°   Ceiling: 400
Heat Index: 37°   Visibility: 1.5mi
Dew Point: 35°   Wind: 13mph
Humidity: 93%   Direction: 160°SSE
Pressure: 29.72"   Gusts: NA
Location:  44.9069°N, 93.7466°W
Report Text: KFCM 212353Z 16011KT 1 1/2SM BR OVC004 03/02 A2972 RMK AO2 SLP072 60003 T00280017 10028 20017 58005
Loading
Personal Weather Stations






























Interactive Weather Map New forecast layout! Learn more

10-Day Weather Forecast

Advertisements
Track Severe Weather on mobile